Florahome, Florida
Current Conditions -  °F | °C
As of 10:53 AM on Tuesday 21 Oct 2014 (Local Time) from KGNV Reporting Station
Clear Clear  
Wind Chill: 77°   Ceiling: Unl
Heat Index: 79°   Visibility: 10mi
Dew Point: 63°   Wind: 9mph
Humidity: 62%   Direction: 10°N
Pressure: 30"   Gusts: NA
Location:  29.73°N, 81.88°W
Report Text: KGNV 211453Z 01008KT 10SM CLR 25/17 A3000 RMK AO2 SLP156 T02500172 51012
Loading
Personal Weather Stations






























Interactive Weather Map
Tropical Storm Tracking
New forecast layout! Learn more

10-Day Weather Forecast

Advertisements
Track Severe Weather on mobile